Latest Coastal Weather Observations for Newcastle Nobbys

IDN60701

Issued at 11:22 pm EST Friday 1 July 2016 (issued every 10 minutes, with the page automatically refreshed every 10 minutes)

About coastal observations | Map of coastal stations | Coastal observations for NSW | Marine services | Other Formats
Station Details ID: 061055 Name: NEWCASTLE NOBBYS SIGNAL STATION AWS Lat: -32.92 Lon: 151.80 Height: 33.0 m
Data from the previous 72 hours. | See also: Recent months at Newcastle Nobbys
Date/Time
EST
Temp
°C
Wind Pressure Rain since
9am
mm
Weather Cloud Vis
km
Sea
Height
m
Swell
Dir  Spd
kts
Gust
kts
hPa Trend Height
m
Period
s
Dir
01/11:00pm 9.8 WNW 12 16 - - 0.0 - - - - - - -
01/10:30pm 9.8 WNW 11 14 - - 0.0 - - - - - - -
01/10:00pm 10.3 NW 12 16 - - 0.0 - - - - - - -
01/09:30pm 11.1 WNW 13 16 - - 0.0 - - - - - - -
01/09:00pm 11.2 WNW 10 13 - - 0.0 - - - - - - -
01/08:30pm 11.4 WNW 11 15 - - 0.0 - - - - - - -
01/08:00pm 11.7 WNW 12 16 - - 0.0 - - - - - - -
01/07:30pm 12.0 NW 12 16 - - 0.0 - - - - - - -
01/07:00pm 12.5 WNW 12 14 - - 0.0 - - - - - - -
01/06:30pm 12.9 NW 12 15 - - 0.0 - - - - - - -
01/06:00pm 13.2 WNW 9 12 - - 0.0 - - - - - - -
01/05:30pm 13.9 WNW 10 12 - - 0.0 - - - - - - -
01/05:00pm 14.5 WNW 9 13 - - 0.0 - - - - - - -
01/04:30pm 15.5 WNW 11 15 - - 0.0 - - - - - - -
01/04:00pm 16.0 WNW 12 15 - - 0.0 - - - - - - -
01/03:30pm 16.3 W 16 21 - - 0.0 - - - - - - -
01/03:00pm 16.4 W 16 22 - - 0.0 - - - - - - -
01/02:30pm 16.3 W 18 23 - - 0.0 - - - - - - -
01/02:00pm 16.0 W 16 22 - - 0.0 - - - - - - -
01/01:30pm 16.1 W 20 29 - - 0.0 - - - - - - -
01/01:01pm 15.7 W 18 28 - - 0.0 - - - - - - -
01/01:00pm 15.7 W 19 28 - - 0.0 - - - - - - -
01/12:30pm 15.4 WNW 17 24 - - 0.0 - - - - - - -
01/12:00pm 14.9 WNW 19 25 - - 0.0 - - - - - - -
01/11:49am 14.6 WNW 18 28 - - 0.0 - - - - - - -
01/11:30am 14.5 WNW 21 28 - - 0.0 - - - - - - -
01/11:00am 14.4 WNW 21 30 - - 0.0 - - - - - - -
01/10:30am 14.1 WNW 19 27 - - 0.0 - - - - - - -
01/10:00am 13.9 NW 20 28 - - 0.0 - - - - - - -
01/09:30am 13.5 WNW 19 28 - - 0.0 - - - - - - -
01/09:00am 12.9 WNW 19 26 - - 0.0 - - - - - - -
01/08:33am 12.3 WNW 19 30 - - 0.0 - - - - - - -
01/08:30am 12.3 WNW 18 23 - - 0.0 - - - - - - -
01/08:00am 11.4 WNW 15 19 - - 0.0 - - - - - - -
01/07:30am 11.2 WNW 12 19 - - 0.0 - - - - - - -
01/07:00am 11.2 NW 14 20 - - 0.0 - - - - - - -
01/06:30am 11.5 NW 13 19 - - 0.0 - - - - - - -
01/06:00am 11.6 WNW 12 17 - - 0.0 - - - - - - -
01/05:30am 11.7 NW 17 21 - - 0.0 - - - - - - -
01/05:00am 11.8 NW 20 27 - - 0.0 - - - - - - -
01/04:30am 11.3 NW 15 21 - - 0.0 - - - - - - -
01/04:00am 11.3 NW 15 21 - - 0.0 - - - - - - -
01/03:30am 11.4 NW 18 22 - - 0.0 - - - - - - -
01/03:00am 11.5 NW 15 20 - - 0.0 - - - - - - -
01/02:30am 11.6 NW 16 21 - - 0.0 - - - - - - -
01/02:00am 11.9 NW 17 22 - - 0.0 - - - - - - -
01/01:42am 11.7 NW 15 28 - - 0.0 - - - - - - -
01/01:30am 11.4 NW 12 21 - - 0.0 - - - - - - -
01/01:00am 11.6 NW 19 26 - - 0.0 - - - - - - -
01/12:30am 12.1 NW 18 23 - - 0.0 - - - - - - -
01/12:00am 11.9 NW 12 16 - - 0.0 - - - - - - -
 
Date/Time
EST
Temp
°C
Wind Pressure Rain since
9am
mm
Weather Cloud Vis
km
Sea
Height
m
Swell
Dir  Spd
kts
Gust
kts
hPa Trend Height
m
Period
s
Dir
30/11:30pm 12.5 NW 12 20 - - 0.0 - - - - - - -
30/11:00pm 12.6 NW 8 11 - - 0.0 - - - - - - -
30/10:30pm 12.3 NW 8 11 - - 0.0 - - - - - - -
30/10:00pm 13.2 NW 10 14 - - 0.0 - - - - - - -
30/09:30pm 13.4 NW 9 12 - - 0.0 - - - - - - -
30/09:00pm 13.7 NNW 10 14 - - 0.0 - - - - - - -
30/08:30pm 13.7 NNW 8 11 - - 0.0 - - - - - - -
30/08:00pm 13.9 N 10 13 - - 0.0 - - - - - - -
30/07:30pm 14.2 NNW 9 13 - - 0.0 - - - - - - -
30/07:00pm 14.7 NW 9 12 - - 0.0 - - - - - - -
30/06:30pm 14.9 NW 10 13 - - 0.0 - - - - - - -
30/06:00pm 14.8 NNW 11 15 - - 0.0 - - - - - - -
30/05:30pm 13.8 NNW 5 7 - - 0.0 - - - - - - -
30/05:00pm 14.8 N 10 12 - - 0.0 - - - - - - -
30/04:30pm 14.6 NNE 10 12 - - 0.0 - - - - - - -
30/04:00pm 14.4 N 9 10 - - 0.0 - - - - - - -
30/03:30pm 14.9 N 9 13 - - 0.0 - - - - - - -
30/03:00pm 14.9 NNW 10 13 - - 0.0 - - - - - - -
30/02:30pm 15.3 NNW 11 15 - - 0.0 - - - - - - -
30/02:00pm 15.2 NW 14 18 - - 0.0 - - - - - - -
30/01:30pm 15.5 NW 13 17 - - 0.0 - - - - - - -
30/01:00pm 15.2 NW 17 21 - - 0.0 - - - - - - -
30/12:30pm 14.0 NW 12 15 - - 0.0 - - - - - - -
30/12:00pm 13.4 NW 13 17 - - 0.0 - - - - - - -
30/11:30am 13.2 NW 12 16 - - 0.0 - - - - - - -
30/11:00am 13.5 NW 10 13 - - 0.0 - - - - - - -
30/10:30am 12.4 NW 12 15 - - 0.0 - - - - - - -
30/10:00am 11.4 NW 15 18 - - 0.0 - - - - - - -
30/09:30am 10.1 NW 12 15 - - 0.0 - - - - - - -
30/09:00am 8.6 NW 12 16 - - 0.0 - - - - - - -
30/08:30am 7.8 NW 16 20 - - 0.0 - - - - - - -
30/08:00am 6.3 NW 9 12 - - 0.0 - - - - - - -
30/07:30am 6.0 NW 10 13 - - 0.0 - - - - - - -
30/07:00am 6.1 NW 8 11 - - 0.0 - - - - - - -
30/06:30am 6.0 NW 12 14 - - 0.0 - - - - - - -
30/06:00am 6.6 NW 11 14 - - 0.0 - - - - - - -
30/05:30am 7.0 NW 12 15 - - 0.0 - - - - - - -
30/05:00am 6.9 NW 12 15 - - 0.0 - - - - - - -
30/04:30am 7.1 NW 9 12 - - 0.0 - - - - - - -
30/04:00am 7.0 NW 10 13 - - 0.0 - - - - - - -
30/03:30am 7.5 NW 9 12 - - 0.0 - - - - - - -
30/03:00am 7.5 NW 11 15 - - 0.0 - - - - - - -
30/02:30am 7.3 NW 9 12 - - 0.0 - - - - - - -
30/02:00am 7.4 NW 7 9 - - 0.0 - - - - - - -
30/01:30am 7.7 NW 6 7 - - 0.0 - - - - - - -
30/01:00am 7.5 NW 6 7 - - 0.0 - - - - - - -
30/12:30am 7.5 WNW 6 9 - - 0.0 - - - - - - -
30/12:00am 8.2 WNW 5 6 - - 0.0 - - - - - - -
 
Date/Time
EST
Temp
°C
Wind Pressure Rain since
9am
mm
Weather Cloud Vis
km
Sea
Height
m
Swell
Dir  Spd
kts
Gust
kts
hPa Trend Height
m
Period
s
Dir
29/11:30pm 8.7 WNW 6 7 - - 0.0 - - - - - - -
29/11:00pm 9.1 WNW 6 7 - - 0.0 - - - - - - -
29/10:30pm 9.5 WNW 4 5 - - 0.0 - - - - - - -
29/10:00pm 10.3 WNW 5 6 - - 0.0 - - - - - - -
29/09:30pm 11.2 NW 5 5 - - 0.0 - - - - - - -
29/09:00pm 11.1 WNW 5 6 - - 0.0 - - - - - - -
29/08:30pm 11.6 WNW 5 6 - - 0.0 - - - - - - -
29/08:00pm 12.0 WNW 4 5 - - 0.0 - - - - - - -
29/07:30pm 12.8 WNW 3 5 - - 0.0 - - - - - - -
29/07:00pm 12.9 WNW 1 2 - - 0.0 - - - - - - -
29/06:30pm 13.9 WNW 3 4 - - 0.0 - - - - - - -
29/06:00pm 14.4 NNW 4 5 - - 0.0 - - - - - - -
29/05:30pm 15.1 ESE 2 3 - - 0.0 - - - - - - -
29/05:00pm 15.6 SSE 2 4 - - 0.0 - - - - - - -
29/04:30pm 16.3 SSE 3 3 - - 0.0 - - - - - - -
29/04:00pm 16.7 SSE 3 4 - - 0.0 - - - - - - -
29/03:30pm 16.8 SSE 3 4 - - 0.0 - - - - - - -
29/03:00pm 16.9 ESE 3 4 - - 0.0 - - - - - - -
29/02:30pm 17.0 SE 4 5 - - 0.0 - - - - - - -
29/02:00pm 18.9 W 1 4 - - 0.0 - - - - - - -
29/01:30pm 18.6 WNW 4 7 - - 0.0 - - - - - - -
29/01:00pm 18.1 WNW 5 7 - - 0.0 - - - - - - -
29/12:30pm 17.3 WNW 6 9 - - 0.0 - - - - - - -
29/12:00pm 17.0 WNW 6 8 - - 0.0 - - - - - - -
29/11:30am 15.5 NW 8 10 - - 0.0 - - - - - - -
29/11:00am 14.4 NW 8 10 - - 0.0 - - - - - - -
29/10:30am 13.4 NW 9 13 - - 0.0 - - - - - - -
29/10:00am 12.6 NW 12 16 - - 0.0 - - - - - - -
29/09:30am 11.9 WNW 12 15 - - 0.0 - - - - - - -
29/09:00am 10.8 WNW 10 12 - - 0.0 - - - - - - -
29/08:30am 9.8 WNW 11 13 - - 0.0 - - - - - - -
29/08:00am 8.7 WNW 9 12 - - 0.0 - - - - - - -
29/07:30am 8.0 WNW 9 12 - - 0.0 - - - - - - -
29/07:00am 7.6 WNW 8 11 - - 0.0 - - - - - - -
29/06:30am 7.5 WNW 9 11 - - 0.0 - - - - - - -
29/06:00am 7.6 WNW 9 12 - - 0.0 - - - - - - -
29/05:30am 7.8 WNW 9 11 - - 0.0 - - - - - - -
29/05:00am 7.8 WNW 8 9 - - 0.0 - - - - - - -
29/04:30am 8.0 WNW 9 11 - - 0.0 - - - - - - -
29/04:00am 8.0 WNW 9 11 - - 0.0 - - - - - - -
29/03:30am 7.9 WNW 8 10 - - 0.0 - - - - - - -
29/03:00am 7.9 WNW 7 9 - - 0.0 - - - - - - -
29/02:30am 8.2 WNW 8 10 - - 0.0 - - - - - - -
29/02:00am 8.4 WNW 7 9 - - 0.0 - - - - - - -
29/01:30am 8.4 WNW 5 7 - - 0.0 - - - - - - -
29/01:00am 8.6 WNW 6 7 - - 0.0 - - - - - - -
29/12:30am 8.6 WNW 5 7 - - 0.0 - - - - - - -
29/12:00am 9.1 NW 5 7 - - 0.0 - - - - - - -
 
Date/Time
EST
Temp
°C
Wind Pressure Rain since
9am
mm
Weather Cloud Vis
km
Sea
Height
m
Swell
Dir  Spd
kts
Gust
kts
hPa Trend Height
m
Period
s
Dir
28/11:30pm 9.9 NW 7 9 - - 0.0 - - - - - - -

Other Formats:

Comma delimited format used in spreadsheet applications
http://www.bom.gov.au/fwo/IDN60701/IDN60701.94774.axf

JavaScript Object Notation format (JSON) in row-major order
http://www.bom.gov.au/fwo/IDN60701/IDN60701.94774.json